Time;durP1;ratioP1;P1;durP2;ratioP2;P2;SDS_P1;SDS_P2;PMS_P1;PMS_P2;Temp;Humidity;BMP_temperature;BMP_pressure;BME280_temperature;BME280_humidity;BME280_pressure;Samples;Min_cycle;Max_cycle;Signal;HPM_P1;HPM_P2
2023/03/11 00:01:02;;;;;;;94.20;86.25;;;;;;;7.22;94.41;97517.66;1829972;78;25537;-49
2023/03/11 00:03:29;;;;;;;36.38;19.75;;;;;;;7.23;94.40;97516.51;1813909;78;25464;-48
2023/03/11 00:05:57;;;;;;;34.25;18.40;;;;;;;7.24;94.18;97511.35;1829930;77;28121;-48
2023/03/11 00:08:24;;;;;;;31.02;16.50;;;;;;;7.23;93.98;97525.92;1829939;78;25425;-49
2023/03/11 00:10:55;;;;;;;30.88;15.85;;;;;;;7.24;94.28;97511.93;1830044;77;25386;-49
2023/03/11 00:13:21;;;;;;;32.63;19.30;;;;;;;7.25;94.39;97508.89;1830035;78;25470;-48
2023/03/11 00:15:50;;;;;;;79.30;72.37;;;;;;;7.27;94.14;97517.38;1830065;78;25462;-49
2023/03/11 00:18:17;;;;;;;33.85;18.12;;;;;;;7.28;94.10;97507.39;1813985;78;27440;-51
2023/03/11 00:20:46;;;;;;;71.10;64.05;;;;;;;7.27;94.02;97514.69;1829971;77;25451;-49
2023/03/11 00:23:14;;;;;;;95.05;86.80;;;;;;;7.28;94.06;97514.88;1813859;78;25415;-51
2023/03/11 00:25:43;;;;;;;93.75;85.90;;;;;;;7.30;94.07;97511.84;1829963;78;25534;-49
2023/03/11 00:28:10;;;;;;;;;;;;;;;7.30;94.15;97503.77;1832773;78;25361;-48
2023/03/11 00:30:38;;;;;;;64.85;59.30;;;;;;;7.33;94.19;97507.10;1830040;78;27567;-48
2023/03/11 00:33:05;;;;;;;93.77;85.87;;;;;;;7.33;94.17;97498.27;1830188;78;25407;-49
2023/03/11 00:35:33;;;;;;;71.12;64.77;;;;;;;7.34;94.13;97494.42;1830045;78;25382;-49
2023/03/11 00:38:04;;;;;;;83.90;76.90;;;;;;;7.34;94.31;97491.19;1830008;78;25542;-50
2023/03/11 00:40:33;;;;;;;95.17;87.15;;;;;;;7.34;94.16;97491.19;1830085;78;25287;-49
2023/03/11 00:42:59;;;;;;;93.37;85.65;;;;;;;7.36;94.21;97486.80;1830181;77;28088;-49
2023/03/11 00:45:27;;;;;;;97.53;89.22;;;;;;;7.35;94.27;97480.63;1829904;77;25735;-49
2023/03/11 00:47:54;;;;;;;47.83;43.08;;;;;;;7.36;94.39;97485.46;1830001;77;25379;-49
2023/03/11 00:50:26;;;;;;;81.37;74.60;;;;;;;7.36;94.13;97480.08;1829971;78;25626;-49
2023/03/11 00:52:52;;;;;;;94.03;85.85;;;;;;;7.33;93.91;97473.48;1830068;77;25390;-50
2023/03/11 00:55:26;;;;;;;90.60;83.05;;;;;;;7.32;93.82;97477.33;1830026;78;27474;-50
2023/03/11 00:57:59;;;;;;;94.72;86.53;;;;;;;7.29;93.74;97472.08;1829864;77;25415;-49
2023/03/11 01:00:27;;;;;;;90.70;83.17;;;;;;;7.27;93.88;97467.63;1830014;78;25392;-49
2023/03/11 01:02:55;;;;;;;92.33;84.42;;;;;;;7.24;93.95;97469.69;1830105;77;25484;-49
2023/03/11 01:05:26;;;;;;;96.45;88.42;;;;;;;7.22;93.82;97464.44;1829965;77;25571;-49
2023/03/11 01:07:52;;;;;;;93.05;85.40;;;;;;;7.20;93.87;97460.78;1829925;77;28169;-51
2023/03/11 01:10:19;;;;;;;94.15;86.45;;;;;;;7.17;94.08;97454.77;1829906;77;25907;-49
2023/03/11 01:12:45;;;;;;;25.20;14.47;;;;;;;7.16;94.03;97451.86;1813793;78;25471;-48
2023/03/11 01:15:17;;;;;;;96.50;88.60;;;;;;;7.15;94.21;97453.01;1829955;77;25469;-49
2023/03/11 01:17:43;;;;;;;90.38;83.20;;;;;;;7.11;94.30;97451.56;1829343;77;25432;-49
2023/03/11 01:20:11;;;;;;;88.47;81.60;;;;;;;7.09;94.14;97443.66;1813717;78;28894;-49
2023/03/11 01:22:37;;;;;;;90.22;83.15;;;;;;;7.07;94.07;97462.06;1813787;78;25403;-49
2023/03/11 01:25:04;;;;;;;93.10;85.47;;;;;;;7.04;94.09;97451.44;1829969;77;30380;-49
2023/03/11 01:27:30;;;;;;;90.55;83.03;;;;;;;7.02;94.50;97456.40;1829952;77;26013;-49
2023/03/11 01:29:56;;;;;;;87.80;80.95;;;;;;;7.00;94.39;97458.66;1830042;77;25385;-50
2023/03/11 01:32:23;;;;;;;88.50;81.80;;;;;;;7.00;94.54;97449.26;1830027;77;27477;-49
2023/03/11 01:34:49;;;;;;;89.30;82.05;;;;;;;6.97;94.40;97449.97;1813670;78;25559;-49
2023/03/11 01:37:15;;;;;;;91.75;83.95;;;;;;;6.96;94.33;97446.28;1829984;77;25459;-49
2023/03/11 01:39:41;;;;;;;89.25;81.97;;;;;;;6.93;94.45;97449.13;1813769;78;25413;-49
2023/03/11 01:42:08;;;;;;;85.87;79.22;;;;;;;6.91;94.52;97449.48;1830015;77;25394;-49
2023/03/11 01:44:34;;;;;;;19.98;12.95;;;;;;;6.89;94.66;97442.89;1829963;77;28248;-50
2023/03/11 01:47:05;;;;;;;30.48;22.80;;;;;;;6.87;94.30;97445.92;1829848;77;25582;-50
2023/03/11 01:49:32;;;;;;;63.95;58.78;;;;;;;6.84;94.59;97446.63;1829953;78;25485;-50
2023/03/11 01:52:02;;;;;;;90.22;83.25;;;;;;;6.83;94.34;97444.32;1813666;78;25479;-49
2023/03/11 01:54:36;;;;;;;91.00;83.82;;;;;;;6.80;94.46;97440.98;1829981;78;25438;-49
2023/03/11 01:57:07;;;;;;;86.00;79.50;;;;;;;6.76;94.48;97433.41;1813742;78;27199;-49
2023/03/11 01:59:38;;;;;;;30.82;27.60;;;;;;;6.72;94.59;97430.11;1829843;78;25351;-51
2023/03/11 02:02:21;;;;;;;43.68;40.05;;;;;;;6.70;94.52;97423.52;1829921;77;25491;-49
2023/03/11 02:04:48;;;;;;;30.90;27.82;;;;;;;6.67;95.21;97426.90;1829781;77;25487;-48
2023/03/11 02:07:15;;;;;;;82.22;75.60;;;;;;;6.64;94.83;97436.45;1829854;78;25543;-49
2023/03/11 02:09:41;;;;;;;37.13;33.60;;;;;;;6.63;94.97;97441.60;1829944;77;27440;-48
2023/03/11 02:12:11;;;;;;;58.40;53.78;;;;;;;6.60;94.77;97431.56;1829850;78;25708;-49
2023/03/11 02:14:39;;;;;;;;;;;;;;;6.57;94.87;97434.94;1832622;77;25445;-48
2023/03/11 02:17:06;;;;;;;15.90;9.45;;;;;;;6.54;94.99;97435.67;1829868;78;26047;-48
2023/03/11 02:20:11;;;;;;;21.05;11.05;;;;;;;6.52;95.11;97427.96;1829960;78;25372;-47
2023/03/11 02:22:41;;;;;;;17.85;9.83;;;;;;;6.50;94.99;97426.74;1829913;77;27431;-48
2023/03/11 02:25:27;;;;;;;18.25;11.18;;;;;;;6.45;94.89;97427.81;1829827;78;25775;-48
2023/03/11 02:27:55;;;;;;;41.85;38.08;;;;;;;6.42;94.90;97427.17;1829947;77;25408;-48
2023/03/11 02:30:24;;;;;;;89.28;82.33;;;;;;;6.39;95.01;97423.07;1829879;77;25483;-48
2023/03/11 02:32:50;;;;;;;88.85;82.08;;;;;;;6.36;95.00;97427.98;1830084;78;25389;-48
2023/03/11 02:35:17;;;;;;;87.20;80.55;;;;;;;6.32;95.30;97424.46;1813804;78;27485;-47
2023/03/11 02:37:47;;;;;;;87.85;81.08;;;;;;;6.28;94.91;97423.62;1829821;78;25375;-48
2023/03/11 02:40:33;;;;;;;90.97;83.67;;;;;;;6.27;95.08;97418.59;1829309;77;25438;-48
2023/03/11 02:43:03;;;;;;;85.12;78.62;;;;;;;6.23;95.04;97413.70;1727761;81;26163;-47
2023/03/11 02:45:30;;;;;;;88.25;81.45;;;;;;;6.20;95.12;97417.08;1752970;81;25714;-48
2023/03/11 02:47:58;;;;;;;87.08;80.47;;;;;;;6.16;94.95;97410.29;1752940;81;27530;-48
2023/03/11 02:50:28;;;;;;;88.27;81.32;;;;;;;6.13;95.23;97402.39;1752864;81;25579;-48
2023/03/11 02:52:54;;;;;;;88.85;82.08;;;;;;;6.11;95.39;97410.02;1727925;81;25560;-47
2023/03/11 02:55:20;;;;;;;85.77;79.07;;;;;;;6.09;95.23;97408.80;1752893;81;25483;-50
2023/03/11 02:57:48;;;;;;;88.55;81.47;;;;;;;6.07;95.34;97408.38;1752987;81;25445;-49
2023/03/11 03:00:16;;;;;;;91.82;84.83;;;;;;;6.04;95.17;97415.77;1752903;81;27486;-48
2023/03/11 03:02:44;;;;;;;89.90;82.88;;;;;;;6.02;95.07;97411.32;1752844;81;25444;-47
2023/03/11 03:05:12;;;;;;;88.90;81.95;;;;;;;5.98;95.17;97407.22;1752931;81;25528;-48
2023/03/11 03:07:38;;;;;;;87.15;80.65;;;;;;;5.96;95.15;97408.14;1749578;81;25495;-49
2023/03/11 03:10:06;;;;;;;44.13;39.85;;;;;;;5.93;95.19;97410.14;1747889;82;25547;-48
2023/03/11 03:12:33;;;;;;;88.47;81.65;;;;;;;5.91;95.34;97407.80;1747832;82;27610;-48
2023/03/11 03:15:00;;;;;;;88.42;81.53;;;;;;;5.89;95.38;97411.95;1747864;82;25824;-49
2023/03/11 03:17:26;;;;;;;61.30;55.92;;;;;;;5.86;95.27;97407.30;1747968;82;25449;-51
2023/03/11 03:19:52;;;;;;;19.92;10.55;;;;;;;5.84;95.18;97412.20;1780416;78;25543;-50
2023/03/11 03:22:18;;;;;;;21.55;11.28;;;;;;;5.79;95.44;97408.67;1827331;78;25396;-47
2023/03/11 03:24:44;;;;;;;88.30;81.40;;;;;;;5.76;95.37;97400.55;1827252;78;27533;-48
2023/03/11 03:27:11;;;;;;;87.55;80.60;;;;;;;5.73;95.23;97402.58;1827255;78;25664;-47
2023/03/11 03:29:37;;;;;;;86.63;80.10;;;;;;;5.68;94.90;97402.27;1827449;78;25359;-47
2023/03/11 03:32:04;;;;;;;87.02;80.35;;;;;;;5.63;95.00;97395.83;1827411;78;25544;-47
2023/03/11 03:34:30;;;;;;;90.22;83.03;;;;;;;5.60;95.06;97407.23;1827468;78;25363;-48
2023/03/11 03:36:56;;;;;;;87.95;80.97;;;;;;;5.55;95.10;97403.48;1827439;78;28344;-48
2023/03/11 03:39:22;;;;;;;87.75;80.92;;;;;;;5.51;94.96;97403.39;1827361;78;25432;-47
2023/03/11 03:41:48;;;;;;;88.70;82.10;;;;;;;5.48;95.12;97404.65;1827423;78;25461;-47
2023/03/11 03:44:14;;;;;;;87.47;80.53;;;;;;;5.45;95.36;97404.79;1810964;78;34995;-49
2023/03/11 03:46:40;;;;;;;90.62;83.37;;;;;;;5.41;95.33;97403.91;1827423;78;25377;-48
2023/03/11 03:49:07;;;;;;;89.77;82.67;;;;;;;5.36;95.36;97408.98;1827460;78;27478;-48
2023/03/11 03:51:33;;;;;;;45.65;41.73;;;;;;;5.31;94.97;97408.44;1827308;78;25720;-48
2023/03/11 03:53:59;;;;;;;39.08;35.28;;;;;;;5.28;95.27;97407.23;1811117;78;25415;-47
2023/03/11 03:56:25;;;;;;;88.72;81.80;;;;;;;5.24;95.57;97410.37;1810944;78;25447;-47
2023/03/11 03:58:53;;;;;;;87.42;80.57;;;;;;;5.20;95.82;97407.60;1827443;78;25442;-47
2023/03/11 04:01:20;;;;;;;29.57;17.92;;;;;;;5.18;95.76;97401.05;1827382;78;27637;-47
2023/03/11 04:03:46;;;;;;;87.47;80.83;;;;;;;5.17;96.12;97395.45;1827314;78;25556;-49
2023/03/11 04:06:23;;;;;;;89.90;83.00;;;;;;;5.16;96.07;97394.69;1827385;78;25383;-48
2023/03/11 04:08:52;;;;;;;88.60;81.78;;;;;;;5.13;96.14;97388.67;1810886;78;25465;-50
2023/03/11 04:11:19;;;;;;;86.92;80.38;;;;;;;5.13;96.31;97386.56;1827442;78;25377;-48
2023/03/11 04:13:45;;;;;;;90.95;84.07;;;;;;;5.12;96.40;97384.98;1827402;78;28087;-48
2023/03/11 04:16:19;;;;;;;25.70;20.17;;;;;;;5.10;96.48;97371.93;1827306;78;25393;-48
2023/03/11 04:18:45;;;;;;;18.62;10.43;;;;;;;5.11;96.58;97364.13;1827378;78;25475;-48
2023/03/11 04:21:12;;;;;;;21.70;10.95;;;;;;;5.12;96.74;97367.00;1827373;78;26125;-48
2023/03/11 04:23:38;;;;;;;20.08;10.40;;;;;;;5.13;96.76;97372.59;1827422;78;25405;-48
2023/03/11 04:26:04;;;;;;;89.22;82.45;;;;;;;5.13;96.82;97373.93;1810931;78;28055;-48
2023/03/11 04:28:31;;;;;;;87.50;80.65;;;;;;;5.13;96.67;97368.57;1827307;78;25479;-48
2023/03/11 04:30:57;;;;;;;89.37;82.33;;;;;;;5.15;96.69;97371.68;1827397;78;25479;-49
2023/03/11 04:33:24;;;;;;;89.00;82.17;;;;;;;5.15;96.81;97377.04;1827360;78;25468;-49
2023/03/11 04:35:50;;;;;;;87.17;80.15;;;;;;;5.16;96.88;97380.48;1811168;78;25467;-52
2023/03/11 04:38:16;;;;;;;22.17;10.93;;;;;;;5.16;96.94;97376.47;1827417;78;27445;-54
2023/03/11 04:40:42;;;;;;;41.58;37.63;;;;;;;5.17;97.01;97377.47;1827313;78;25923;-50
2023/03/11 04:43:08;;;;;;;87.55;80.75;;;;;;;5.17;97.18;97373.45;1827435;78;25373;-49
2023/03/11 04:45:41;;;;;;;74.32;68.40;;;;;;;5.18;97.23;97368.31;1827391;78;26135;-51
2023/03/11 04:48:08;;;;;;;88.47;81.32;;;;;;;5.18;97.38;97371.00;1827458;78;25352;-52
2023/03/11 04:50:34;;;;;;;89.52;82.57;;;;;;;5.19;97.32;97373.91;1811050;78;28111;-51
2023/03/11 04:53:00;;;;;;;89.25;82.53;;;;;;;5.20;97.38;97367.41;1784275;78;25975;-49
2023/03/11 04:55:26;;;;;;;88.75;81.97;;;;;;;5.21;97.49;97371.66;1827368;78;25348;-48
2023/03/11 04:57:52;;;;;;;88.03;81.42;;;;;;;5.21;97.58;97379.69;1827338;78;25529;-48
2023/03/11 05:00:23;;;;;;;92.45;85.12;;;;;;;5.22;97.75;97379.13;1827380;78;25430;-49
2023/03/11 05:02:47;;;;;;;89.25;82.20;;;;;;;5.24;97.92;97376.33;1811489;78;27536;-51
2023/03/11 05:05:14;;;;;;;87.30;80.60;;;;;;;5.25;97.78;97383.80;1827275;78;25722;-48
2023/03/11 05:07:40;;;;;;;88.07;81.08;;;;;;;5.26;97.97;97385.91;1825866;78;25441;-48
2023/03/11 05:10:08;;;;;;;88.78;81.55;;;;;;;5.28;98.03;97387.68;1823875;78;33702;-48
2023/03/11 05:12:34;;;;;;;86.80;80.20;;;;;;;5.29;98.01;97391.93;1823921;78;25418;-48
2023/03/11 05:15:00;;;;;;;85.47;78.78;;;;;;;5.30;98.17;97388.13;1823873;78;27454;-49
2023/03/11 05:17:26;;;;;;;87.27;80.67;;;;;;;5.30;98.31;97390.25;1823774;78;29311;-48
2023/03/11 05:19:53;;;;;;;75.52;69.72;;;;;;;5.32;98.16;97389.33;1823871;78;25467;-49
2023/03/11 05:22:20;;;;;;;87.17;80.30;;;;;;;5.34;98.16;97384.97;1823852;78;25535;-48
2023/03/11 05:24:46;;;;;;;88.95;82.00;;;;;;;5.34;98.33;97384.41;1823904;78;25451;-48
2023/03/11 05:27:16;;;;;;;90.00;83.30;;;;;;;5.36;98.23;97380.04;1823839;78;27449;-49
2023/03/11 05:29:42;;;;;;;88.07;81.25;;;;;;;5.38;98.13;97378.58;1823793;78;30328;-49
2023/03/11 05:32:08;;;;;;;86.87;80.32;;;;;;;5.40;98.31;97377.67;1803258;78;25436;-48
2023/03/11 05:34:34;;;;;;;86.35;79.25;;;;;;;5.42;98.27;97374.65;1823820;77;25484;-48
2023/03/11 05:37:01;;;;;;;86.25;79.67;;;;;;;5.43;98.13;97372.16;1823883;78;25451;-48
2023/03/11 05:39:27;;;;;;;87.65;80.95;;;;;;;5.45;98.20;97377.98;1823857;78;27466;-48
2023/03/11 05:41:55;;;;;;;87.30;80.53;;;;;;;5.48;98.12;97375.16;1823759;78;25786;-48
2023/03/11 05:44:22;;;;;;;88.58;81.67;;;;;;;5.48;98.11;97371.91;1823827;78;25388;-48
2023/03/11 05:46:48;;;;;;;88.90;81.78;;;;;;;5.52;98.06;97376.04;1823784;78;25501;-48
2023/03/11 05:49:14;;;;;;;91.63;84.15;;;;;;;5.52;98.02;97369.34;1823823;78;25372;-48
2023/03/11 05:51:41;;;;;;;89.87;82.85;;;;;;;5.54;97.94;97362.48;1823859;78;28402;-49
2023/03/11 05:54:13;;;;;;;89.42;82.47;;;;;;;5.55;97.88;97364.06;1823750;78;25692;-48
2023/03/11 05:56:35;;;;;;;89.83;82.78;;;;;;;5.57;97.82;97359.12;1802338;78;25450;-52
2023/03/11 05:59:01;;;;;;;89.47;82.50;;;;;;;5.59;97.81;97366.25;1823812;78;26014;-52
2023/03/11 06:01:27;;;;;;;28.35;25.35;;;;;;;5.61;97.75;97368.02;1823912;77;25383;-52
2023/03/11 06:03:53;;;;;;;88.42;81.60;;;;;;;5.65;97.74;97367.33;1823880;78;27511;-53
2023/03/11 06:06:20;;;;;;;88.87;81.70;;;;;;;5.67;97.76;97367.75;1823765;77;28918;-53
2023/03/11 06:08:48;;;;;;;86.45;80.10;;;;;;;5.70;97.67;97375.11;1828163;78;25447;-49
2023/03/11 06:11:14;;;;;;;86.45;79.80;;;;;;;5.71;97.54;97373.99;1829817;77;25493;-47
2023/03/11 06:13:41;;;;;;;84.62;78.22;;;;;;;5.75;97.67;97374.84;1829950;77;25378;-48
2023/03/11 06:16:07;;;;;;;86.25;79.47;;;;;;;5.77;97.64;97373.92;1813650;78;27360;-48
2023/03/11 06:18:34;;;;;;;85.92;79.40;;;;;;;5.79;97.67;97376.48;1829838;77;25819;-48
2023/03/11 06:21:02;;;;;;;86.08;79.47;;;;;;;5.85;97.84;97382.36;1829936;78;25431;-49
2023/03/11 06:23:30;;;;;;;86.40;79.90;;;;;;;5.88;97.64;97384.34;1813651;78;25451;-47
2023/03/11 06:26:00;;;;;;;86.80;80.42;;;;;;;5.92;97.50;97383.85;1829930;78;25355;-48
2023/03/11 06:28:28;;;;;;;87.53;80.53;;;;;;;5.96;97.53;97390.70;1829894;78;27982;-48
2023/03/11 06:30:57;;;;;;;89.70;82.60;;;;;;;6.00;97.48;97391.55;1829827;77;25454;-47
2023/03/11 06:33:24;;;;;;;86.40;79.92;;;;;;;6.03;97.35;97396.22;1829919;77;25412;-49
2023/03/11 06:35:59;;;;;;;86.53;80.20;;;;;;;6.07;97.28;97401.09;1829888;78;25547;-48
2023/03/11 06:38:26;;;;;;;84.32;77.55;;;;;;;6.08;97.08;97395.15;1829561;77;25417;-48
2023/03/11 06:40:52;;;;;;;84.72;78.35;;;;;;;6.11;97.09;97403.30;1829926;77;27581;-48
2023/03/11 06:43:20;;;;;;;18.50;9.10;;;;;;;6.13;96.84;97402.93;1829826;77;25388;-48
2023/03/11 06:45:46;;;;;;;15.72;9.45;;;;;;;6.14;96.67;97404.50;1829895;78;25381;-49
2023/03/11 06:48:13;;;;;;;16.32;9.25;;;;;;;6.16;96.65;97403.03;1829859;77;25929;-48
2023/03/11 06:50:39;;;;;;;16.55;9.25;;;;;;;6.20;96.86;97396.40;1829947;77;25446;-48
2023/03/11 06:53:06;;;;;;;64.20;59.30;;;;;;;6.26;96.83;97402.27;1829909;78;27559;-49
2023/03/11 06:55:33;;;;;;;86.95;80.30;;;;;;;6.30;96.89;97399.08;1829826;78;25749;-49
2023/03/11 06:57:59;;;;;;;17.98;8.65;;;;;;;6.35;96.86;97397.46;1829900;78;25398;-49
2023/03/11 07:00:26;;;;;;;15.23;8.78;;;;;;;6.41;97.03;97405.47;1813672;78;25950;-49
2023/03/11 07:02:53;;;;;;;13.75;8.20;;;;;;;6.47;97.13;97404.07;1829917;78;25407;-49
2023/03/11 07:05:19;;;;;;;18.52;9.10;;;;;;;6.56;97.48;97405.20;1829893;77;28030;-49
2023/03/11 07:07:45;;;;;;;17.60;8.70;;;;;;;6.64;97.58;97404.77;1828680;78;25438;-48
2023/03/11 07:10:11;;;;;;;15.85;8.93;;;;;;;6.70;97.51;97410.08;1823827;78;25363;-49
2023/03/11 07:12:37;;;;;;;12.33;8.43;;;;;;;6.77;97.49;97410.22;1803237;78;25386;-48
2023/03/11 07:15:05;;;;;;;14.63;8.60;;;;;;;6.83;97.42;97408.81;1823826;78;25357;-49
2023/03/11 07:17:31;;;;;;;14.83;8.48;;;;;;;6.85;97.29;97406.55;1823788;78;27609;-49
2023/03/11 07:19:58;;;;;;;15.38;8.23;;;;;;;6.91;97.23;97411.06;1823735;78;25404;-49
2023/03/11 07:22:24;;;;;;;12.63;7.58;;;;;;;6.95;97.22;97405.75;1823799;78;25432;-47
2023/03/11 07:24:50;;;;;;;11.45;7.67;;;;;;;6.98;97.07;97417.94;1823769;78;25515;-47
2023/03/11 07:27:17;;;;;;;11.22;7.90;;;;;;;7.04;97.19;97414.39;1823791;78;25413;-47
2023/03/11 07:29:44;;;;;;;12.65;8.18;;;;;;;7.08;97.12;97417.36;1823783;78;28099;-48
2023/03/11 07:32:10;;;;;;;14.78;7.85;;;;;;;7.15;97.15;97416.72;1823690;78;25515;-50
2023/03/11 07:34:36;;;;;;;14.70;8.18;;;;;;;7.21;97.12;97423.91;1823792;78;25444;-47
2023/03/11 07:37:03;;;;;;;12.70;7.90;;;;;;;7.23;96.71;97429.13;1823769;78;26006;-49
2023/03/11 07:39:29;;;;;;;23.60;21.35;;;;;;;7.26;96.68;97427.66;1803387;78;25394;-49
2023/03/11 07:41:55;;;;;;;85.57;79.30;;;;;;;7.31;96.68;97431.97;1823797;78;27424;-49
2023/03/11 07:44:21;;;;;;;82.92;77.00;;;;;;;7.36;96.42;97433.80;1823670;78;25376;-49
2023/03/11 07:46:48;;;;;;;86.17;80.00;;;;;;;7.39;95.88;97428.25;1803312;78;28636;-48
2023/03/11 07:49:14;;;;;;;87.20;80.92;;;;;;;7.39;95.57;97429.05;1803200;78;25954;-48
2023/03/11 07:51:42;;;;;;;85.62;79.47;;;;;;;7.39;95.22;97435.77;1823805;78;25436;-49
2023/03/11 07:54:10;;;;;;;14.25;9.03;;;;;;;7.38;95.13;97430.75;1823779;78;28151;-49
2023/03/11 07:56:37;;;;;;;84.95;79.03;;;;;;;7.43;95.20;97436.60;1823735;78;25746;-47
2023/03/11 07:59:04;;;;;;;87.30;80.62;;;;;;;7.45;95.51;97430.30;1823856;78;25391;-49
2023/03/11 08:01:35;;;;;;;22.15;12.63;;;;;;;7.50;95.37;97433.84;1823860;78;25543;-51
2023/03/11 08:04:05;;;;;;;26.77;21.82;;;;;;;7.58;95.56;97440.91;1823849;78;25368;-55
2023/03/11 08:06:33;;;;;;;89.25;82.72;;;;;;;7.62;95.52;97439.80;1823716;77;28051;-50
2023/03/11 08:09:03;;;;;;;19.57;12.70;;;;;;;7.69;95.16;97452.60;1827049;78;25442;-52
2023/03/11 08:13:30;;;;;;;38.85;35.25;;;;;;;7.77;93.50;97459.66;1866727;76;34780;-49
2023/03/11 08:15:57;;;;;;;70.55;65.05;;;;;;;7.70;93.51;97455.52;1822503;78;25755;-49
2023/03/11 08:18:23;;;;;;;35.88;32.67;;;;;;;7.73;93.81;97452.66;1824474;78;27608;-49
2023/03/11 08:20:49;;;;;;;86.92;80.15;;;;;;;7.74;93.31;97456.34;1824360;78;25525;-49
2023/03/11 08:23:15;;;;;;;20.68;13.58;;;;;;;7.73;93.33;97459.39;1824467;78;25586;-49
2023/03/11 08:25:42;;;;;;;92.25;85.53;;;;;;;7.74;93.01;97460.38;1824409;78;25619;-49
2023/03/11 08:28:08;;;;;;;83.78;77.47;;;;;;;7.75;93.20;97466.55;1824449;78;25343;-49
2023/03/11 08:30:35;;;;;;;92.10;85.12;;;;;;;7.73;92.49;97468.25;1824542;78;27580;-49
2023/03/11 08:33:01;;;;;;;91.90;85.00;;;;;;;7.70;92.66;97464.16;1824342;78;25599;-50
2023/03/11 08:35:27;;;;;;;70.70;65.30;;;;;;;7.67;92.27;97469.10;1824458;78;25446;-50
2023/03/11 08:37:54;;;;;;;21.52;13.68;;;;;;;7.64;92.27;97475.77;1824349;78;25387;-49
2023/03/11 08:40:20;;;;;;;23.67;21.17;;;;;;;7.59;92.18;97471.45;1824474;78;25540;-49
2023/03/11 08:42:47;;;;;;;67.67;62.55;;;;;;;7.57;92.00;97479.11;1786805;78;27285;-49
2023/03/11 08:45:14;;;;;;;91.20;84.52;;;;;;;7.52;91.93;97473.25;1824334;78;25546;-50
2023/03/11 08:47:40;;;;;;;93.72;86.63;;;;;;;7.48;92.29;97484.72;1803787;78;25770;-47
2023/03/11 08:50:13;;;;;;;91.20;84.52;;;;;;;7.49;92.46;97478.77;1824345;78;25533;-48
2023/03/11 08:52:39;;;;;;;21.65;16.57;;;;;;;7.46;92.49;97481.61;1823881;78;25410;-48
2023/03/11 08:55:10;;;;;;;32.73;29.80;;;;;;;7.45;92.30;97482.73;1824427;78;27478;-49
2023/03/11 08:57:37;;;;;;;44.63;40.67;;;;;;;7.44;92.66;97486.58;1821492;78;27037;-48
2023/03/11 09:00:08;;;;;;;17.17;12.37;;;;;;;7.43;92.60;97489.05;1824491;78;25390;-49
2023/03/11 09:02:34;;;;;;;20.15;15.78;;;;;;;7.40;92.56;97493.78;1824416;78;25830;-50
2023/03/11 09:05:02;;;;;;;80.90;74.87;;;;;;;7.39;92.55;97495.48;1824470;78;25587;-51
2023/03/11 09:07:28;;;;;;;48.83;44.77;;;;;;;7.38;92.69;97500.09;1824378;78;27510;-50
2023/03/11 09:09:54;;;;;;;30.95;28.10;;;;;;;7.41;92.86;97505.34;1803754;78;25389;-50
2023/03/11 09:12:21;;;;;;;32.75;29.50;;;;;;;7.39;92.69;97508.38;1826801;78;25395;-49
2023/03/11 09:14:48;;;;;;;21.25;17.82;;;;;;;7.38;92.78;97506.05;1797547;78;25543;-49
2023/03/11 09:17:14;;;;;;;49.73;45.43;;;;;;;7.34;92.61;97511.91;1814279;78;25619;-51
2023/03/11 09:19:40;;;;;;;20.25;13.80;;;;;;;7.32;92.91;97514.97;1830492;78;27492;-49
2023/03/11 09:22:06;;;;;;;33.58;30.43;;;;;;;7.29;92.82;97513.76;1830376;78;25763;-50
2023/03/11 09:24:34;;;;;;;83.97;77.72;;;;;;;7.28;92.92;97525.63;1829990;77;25519;-51
2023/03/11 09:27:02;;;;;;;76.20;70.40;;;;;;;7.27;92.97;97530.02;1829888;78;25551;-50
2023/03/11 09:29:28;;;;;;;72.92;67.20;;;;;;;7.23;93.03;97528.61;1813937;78;25372;-49
2023/03/11 09:31:55;;;;;;;94.67;87.17;;;;;;;7.19;93.14;97534.49;1829863;77;28619;-49
2023/03/11 09:34:21;;;;;;;93.25;86.00;;;;;;;7.17;93.35;97544.03;1829824;77;25594;-48
2023/03/11 09:36:48;;;;;;;24.27;15.10;;;;;;;7.17;93.75;97541.34;1829769;78;25604;-49
2023/03/11 09:39:14;;;;;;;26.37;16.40;;;;;;;7.18;93.85;97546.36;1813256;78;25641;-49
2023/03/11 09:41:55;;;;;;;54.45;49.60;;;;;;;7.18;93.87;97545.02;1829860;78;25374;-49
2023/03/11 09:44:47;;;;;;;31.20;16.25;;;;;;;7.18;93.88;97547.70;1829258;77;27634;-49
2023/03/11 09:47:25;;;;;;;30.77;15.93;;;;;;;7.18;93.96;97555.00;1813766;78;26110;-49
2023/03/11 09:50:20;;;;;;;28.90;16.90;;;;;;;7.14;93.87;97556.28;1829858;78;25362;-50
2023/03/11 09:53:10;;;;;;;32.88;17.52;;;;;;;7.09;93.86;97564.05;1829910;78;25454;-48
2023/03/11 09:55:45;;;;;;;29.95;17.25;;;;;;;7.06;93.96;97563.97;1829945;77;25631;-49
2023/03/11 09:58:45;;;;;;;50.25;45.10;;;;;;;6.97;93.67;97572.23;1829855;77;27545;-50
2023/03/11 10:01:17;;;;;;;43.87;39.42;;;;;;;6.92;93.65;97583.27;1829801;77;25382;-50
2023/03/11 10:03:45;;;;;;;45.03;40.23;;;;;;;6.84;93.87;97578.85;1829462;77;25565;-48
2023/03/11 10:06:24;;;;;;;35.15;20.20;;;;;;;6.80;93.87;97586.06;1829832;77;25842;-47
2023/03/11 10:09:05;;;;;;;44.27;24.05;;;;;;;6.73;94.14;97592.05;1830107;77;25525;-49
2023/03/11 10:12:13;;;;;;;46.50;30.27;;;;;;;6.61;93.25;97598.30;1747479;82;27606;-50
2023/03/11 10:15:13;;;;;;;36.53;20.20;;;;;;;6.49;92.99;97605.13;1747478;82;25693;-49
2023/03/11 10:17:45;;;;;;;44.70;21.15;;;;;;;6.34;92.45;97624.89;1747474;82;25658;-50
2023/03/11 10:20:20;;;;;;;40.85;19.92;;;;;;;6.15;91.74;97622.89;1747492;82;25605;-50
2023/03/11 10:23:21;;;;;;;33.75;19.87;;;;;;;6.03;91.58;97623.50;1722503;82;25564;-48
2023/03/11 10:26:09;;;;;;;40.98;20.57;;;;;;;5.88;91.09;97626.36;1747494;82;29678;-48
2023/03/11 10:28:53;;;;;;;44.77;21.23;;;;;;;5.75;91.06;97642.48;1747431;82;25690;-47
2023/03/11 10:31:49;;;;;;;47.67;21.37;;;;;;;5.54;89.86;97633.30;1747636;82;25630;-49
2023/03/11 10:34:51;;;;;;;39.13;19.77;;;;;;;5.33;89.73;97651.44;1747467;82;25498;-48
2023/03/11 10:37:32;;;;;;;38.28;18.17;;;;;;;5.17;89.76;97658.06;1747479;82;25411;-49
2023/03/11 10:40:04;;;;;;;31.82;15.43;;;;;;;5.03;89.73;97663.20;1747529;82;27477;-49
2023/03/11 10:42:34;;;;;;;31.35;14.55;;;;;;;4.95;89.67;97677.49;1745206;82;25459;-48
2023/03/11 10:45:00;;;;;;;24.95;12.75;;;;;;;4.65;88.53;97701.81;1722788;82;25549;-50
2023/03/11 10:47:28;;;;;;;22.85;11.90;;;;;;;4.65;88.53;97701.81;1747430;82;27336;-49
2023/03/11 10:49:54;;;;;;;26.73;12.07;;;;;;;4.52;88.70;97704.24;1821292;78;25563;-50
2023/03/11 10:52:21;;;;;;;20.15;10.78;;;;;;;4.38;88.86;97706.45;1829753;78;27517;-48
2023/03/11 10:55:01;;;;;;;22.17;10.80;;;;;;;4.26;88.93;97720.58;1829801;77;27381;-49
2023/03/11 10:57:34;;;;;;;23.83;11.75;;;;;;;4.16;89.23;97736.48;1829831;77;25506;-49
2023/03/11 11:00:16;;;;;;;22.48;11.00;;;;;;;4.06;89.48;97743.58;1829802;77;25374;-49
2023/03/11 11:02:40;;;;;;;18.48;9.93;;;;;;;3.89;88.90;97739.14;1825870;77;25555;-49
2023/03/11 11:05:27;;;;;;;14.58;9.38;;;;;;;3.79;89.06;97752.91;1812013;78;27390;-48
2023/03/11 11:08:15;;;;;;;14.70;8.55;;;;;;;3.66;89.27;97752.84;1829768;77;25530;-49
2023/03/11 11:10:53;;;;;;;12.90;8.95;;;;;;;3.58;89.69;97758.25;1829855;77;25403;-49
2023/03/11 11:13:29;;;;;;;11.97;7.97;;;;;;;3.44;89.67;97769.95;1788781;78;25840;-48
2023/03/11 11:16:05;;;;;;;18.15;10.00;;;;;;;3.36;90.25;97782.81;1823413;78;25636;-49
2023/03/11 11:18:36;;;;;;;14.85;7.83;;;;;;;3.30;90.62;97787.56;1803133;78;28110;-49
2023/03/11 11:21:10;;;;;;;11.38;7.20;;;;;;;3.22;90.12;97784.38;1822410;78;27370;-50
2023/03/11 11:23:49;;;;;;;9.50;6.92;;;;;;;3.16;90.13;97793.09;1823044;78;25387;-50
2023/03/11 11:26:23;;;;;;;10.90;7.12;;;;;;;3.07;89.87;97797.70;1823992;78;25435;-49
2023/03/11 11:29:13;;;;;;;11.80;7.95;;;;;;;2.97;89.75;97801.50;1823705;78;25723;-53
2023/03/11 11:31:45;;;;;;;11.83;8.25;;;;;;;2.89;89.65;97810.31;1821299;78;27602;-50
2023/03/11 11:34:31;;;;;;;12.13;8.63;;;;;;;2.78;89.53;97815.22;1823622;78;25430;-49
2023/03/11 11:37:00;;;;;;;11.78;8.30;;;;;;;2.71;89.63;97821.59;1823704;78;25192;-48
2023/03/11 11:39:32;;;;;;;11.55;8.33;;;;;;;2.65;89.65;97830.86;1823730;78;25529;-50